Melody — 3FBS7 — position and weather

sailwx.info

Track history (hours):
 
Tides and Currents Weather Stations Pressure Air Temp Water Temp Dewpoint Dewpoint Depression Visibility Wind Speed Wind Dir Waves Ship Positions

Melody

Operator: Mediterranean Shipping Company

Last reported at 2019-Nov-25 16:30 UTC. Time now 2019-Dec-11 06:19 UTC.
Position N 29°21' W 094°47'.
Warning: this ship's position is 15 days out of date.

Length 225 m; draft 11.6 m.

Type: Tanker. MMSI: 371669000.

Date/timePositionNaut miles runAvg speedWind from/ knotsBaromVisibWave heightAir tempDewpointWater temp
2019-Nov-25 16:30N 29°21' W 094°47'29 9.7
2019-Nov-25 13:30N 29°45' W 095°04'3 1.4
2019-Nov-25 11:28N 29°44' W 095°07'0 0.0
2019-Nov-25 10:49N 29°44' W 095°07'0 0.0
2019-Nov-25 08:49N 29°44' W 095°07'0 0.0
2019-Nov-24 16:40N 29°44' W 095°08'0 0.0
2019-Nov-24 11:40N 29°44' W 095°08'0 0.0
2019-Nov-24 06:28N 29°44' W 095°08'0 0.0
2019-Nov-24 04:58N 29°44' W 095°08'0 0.0
2019-Nov-23 01:07N 29°44' W 095°08'0 0.0
2019-Nov-23 00:25N 29°44' W 095°08'0 0.0
2019-Nov-22 21:19N 29°44' W 095°08'0 0.0
2019-Nov-22 17:01N 29°44' W 095°08'0 0.0
2019-Nov-22 15:55N 29°44' W 095°08'0 0.0
2019-Nov-22 11:43N 29°44' W 095°08'0 0.0
2019-Nov-22 03:22N 29°44' W 095°08'0 0.0
2019-Nov-21 18:00N 29°44' W 095°08'4 4.2
2019-Nov-21 17:00N 29°44' W 095°03'7 6.7
2019-Nov-21 16:00N 29°39' W 094°58'612.2
2019-Nov-21 15:30N 29°33' W 094°55'24 7.7
2019-Nov-21 12:27N 29°13' W 094°41'0 0.1
2019-Nov-21 12:00N 29°13' W 094°41'0 0.0
2019-Nov-21 10:21N 29°13' W 094°41'0 0.0
2019-Nov-21 09:51N 29°13' W 094°41'0 0.0
2019-Nov-21 07:30N 29°13' W 094°41'0 0.0
2019-Nov-21 05:09N 29°13' W 094°41'0 0.0
2019-Nov-21 03:09N 29°13' W 094°41'0 0.0
2019-Nov-21 01:24N 29°13' W 094°41'0 0.0
2019-Nov-21 00:03N 29°13' W 094°41'0 0.0
2019-Nov-20 21:48N 29°13' W 094°41'0 0.0
2019-Nov-20 21:24N 29°13' W 094°41'0 0.0
2019-Nov-20 20:57N 29°13' W 094°41'0 0.0
2019-Nov-20 19:57N 29°13' W 094°41'0 0.0
2019-Nov-20 18:15N 29°13' W 094°41'0 0.0
2019-Nov-20 17:36N 29°13' W 094°41'0 0.0
2019-Nov-20 14:27N 29°13' W 094°41'0 0.0
2019-Nov-20 13:00N 29°13' W 094°41'0 0.0
2019-Nov-20 11:48N 29°13' W 094°41'0 0.0
2019-Nov-20 08:21N 29°13' W 094°41'0 0.0
2019-Nov-20 07:24N 29°13' W 094°41'0 0.0
2019-Nov-20 06:30N 29°13' W 094°41'0 0.0
2019-Nov-20 04:30N 29°13' W 094°41'0 0.0
2019-Nov-20 03:30N 29°13' W 094°41'0 0.0
2019-Nov-20 02:30N 29°13' W 094°41'0 0.0
2019-Nov-19 23:30N 29°13' W 094°41'0 0.0
2019-Nov-19 22:30N 29°13' W 094°41'0 0.0
2019-Nov-19 20:54N 29°13' W 094°41'0 0.0
2019-Nov-19 18:27N 29°13' W 094°41'0 0.0
2019-Nov-19 18:00N 29°13' W 094°41'0 0.0
2019-Nov-19 16:30N 29°13' W 094°41'0 0.0
2019-Nov-19 14:30N 29°13' W 094°41'0 0.0
2019-Nov-19 13:30N 29°13' W 094°41'0 0.0
2019-Nov-19 11:00N 29°13' W 094°41'0 0.0
2019-Nov-19 08:57N 29°13' W 094°41'0 0.0
2019-Nov-19 06:45N 29°13' W 094°41'0 0.0
2019-Nov-19 04:30N 29°13' W 094°41'0 0.0
2019-Nov-19 02:00N 29°13' W 094°41'0 0.0
2019-Nov-18 22:27N 29°13' W 094°41'0 0.0
2019-Nov-18 15:54N 29°13' W 094°41'0 0.0
2019-Nov-18 15:27N 29°13' W 094°41'0 0.0
2019-Nov-18 12:57N 29°13' W 094°41'0 0.0
2019-Nov-18 12:21N 29°13' W 094°41'0 0.0
2019-Nov-18 09:21N 29°13' W 094°41'0 0.0
2019-Nov-18 02:54N 29°13' W 094°41'0 0.0
2019-Nov-18 01:51N 29°13' W 094°41'0 0.0
2019-Nov-18 00:48N 29°13' W 094°41'0 0.1
2019-Nov-17 23:30N 29°13' W 094°41'3 6.8
2019-Nov-17 23:00N 29°15' W 094°38'8 8.2
2019-Nov-17 21:59N 29°21' W 094°45'0 0.0
2019-Nov-17 19:50N 29°21' W 094°45'0 0.0
2019-Nov-17 17:29N 29°21' W 094°45'0 0.0
2019-Nov-17 16:59N 29°21' W 094°45'49 5.1
2019-Nov-17 07:18N 28°35' W 094°25'  
Track history (hours):
 
Tides and Currents Weather Stations Pressure Air Temp Water Temp Dewpoint Dewpoint Depression Visibility Wind Speed Wind Dir Waves Ship Positions

Melody

Operator: Mediterranean Shipping Company

Last reported at 2019-Nov-25 16:30 UTC. Time now 2019-Dec-11 06:19 UTC.
Position N 29°21' W 094°47'.
Warning: this ship's position is 15 days out of date.

Length 225 m; draft 11.6 m.

Type: Tanker. MMSI: 371669000.

Date/timePositionNaut miles runAvg speedWind from/ knotsBaromVisibWave heightAir tempDewpointWater temp
2019-Nov-25 16:30N 29°21' W 094°47'29 9.7
2019-Nov-25 13:30N 29°45' W 095°04'3 1.4
2019-Nov-25 11:28N 29°44' W 095°07'0 0.0
2019-Nov-25 10:49N 29°44' W 095°07'0 0.0
2019-Nov-25 08:49N 29°44' W 095°07'0 0.0
2019-Nov-24 16:40N 29°44' W 095°08'0 0.0
2019-Nov-24 11:40N 29°44' W 095°08'0 0.0
2019-Nov-24 06:28N 29°44' W 095°08'0 0.0
2019-Nov-24 04:58N 29°44' W 095°08'0 0.0
2019-Nov-23 01:07N 29°44' W 095°08'0 0.0
2019-Nov-23 00:25N 29°44' W 095°08'0 0.0
2019-Nov-22 21:19N 29°44' W 095°08'0 0.0
2019-Nov-22 17:01N 29°44' W 095°08'0 0.0
2019-Nov-22 15:55N 29°44' W 095°08'0 0.0
2019-Nov-22 11:43N 29°44' W 095°08'0 0.0
2019-Nov-22 03:22N 29°44' W 095°08'0 0.0
2019-Nov-21 18:00N 29°44' W 095°08'4 4.2
2019-Nov-21 17:00N 29°44' W 095°03'7 6.7
2019-Nov-21 16:00N 29°39' W 094°58'612.2
2019-Nov-21 15:30N 29°33' W 094°55'24 7.7
2019-Nov-21 12:27N 29°13' W 094°41'0 0.1
2019-Nov-21 12:00N 29°13' W 094°41'0 0.0
2019-Nov-21 10:21N 29°13' W 094°41'0 0.0
2019-Nov-21 09:51N 29°13' W 094°41'0 0.0
2019-Nov-21 07:30N 29°13' W 094°41'0 0.0
2019-Nov-21 05:09N 29°13' W 094°41'0 0.0
2019-Nov-21 03:09N 29°13' W 094°41'0 0.0
2019-Nov-21 01:24N 29°13' W 094°41'0 0.0
2019-Nov-21 00:03N 29°13' W 094°41'0 0.0
2019-Nov-20 21:48N 29°13' W 094°41'0 0.0
2019-Nov-20 21:24N 29°13' W 094°41'0 0.0
2019-Nov-20 20:57N 29°13' W 094°41'0 0.0
2019-Nov-20 19:57N 29°13' W 094°41'0 0.0
2019-Nov-20 18:15N 29°13' W 094°41'0 0.0
2019-Nov-20 17:36N 29°13' W 094°41'0 0.0
2019-Nov-20 14:27N 29°13' W 094°41'0 0.0
2019-Nov-20 13:00N 29°13' W 094°41'0 0.0
2019-Nov-20 11:48N 29°13' W 094°41'0 0.0
2019-Nov-20 08:21N 29°13' W 094°41'0 0.0
2019-Nov-20 07:24N 29°13' W 094°41'0 0.0
2019-Nov-20 06:30N 29°13' W 094°41'0 0.0
2019-Nov-20 04:30N 29°13' W 094°41'0 0.0
2019-Nov-20 03:30N 29°13' W 094°41'0 0.0
2019-Nov-20 02:30N 29°13' W 094°41'0 0.0
2019-Nov-19 23:30N 29°13' W 094°41'0 0.0
2019-Nov-19 22:30N 29°13' W 094°41'0 0.0
2019-Nov-19 20:54N 29°13' W 094°41'0 0.0
2019-Nov-19 18:27N 29°13' W 094°41'0 0.0
2019-Nov-19 18:00N 29°13' W 094°41'0 0.0
2019-Nov-19 16:30N 29°13' W 094°41'0 0.0
2019-Nov-19 14:30N 29°13' W 094°41'0 0.0
2019-Nov-19 13:30N 29°13' W 094°41'0 0.0
2019-Nov-19 11:00N 29°13' W 094°41'0 0.0
2019-Nov-19 08:57N 29°13' W 094°41'0 0.0
2019-Nov-19 06:45N 29°13' W 094°41'0 0.0
2019-Nov-19 04:30N 29°13' W 094°41'0 0.0
2019-Nov-19 02:00N 29°13' W 094°41'0 0.0
2019-Nov-18 22:27N 29°13' W 094°41'0 0.0
2019-Nov-18 15:54N 29°13' W 094°41'0 0.0
2019-Nov-18 15:27N 29°13' W 094°41'0 0.0
2019-Nov-18 12:57N 29°13' W 094°41'0 0.0
2019-Nov-18 12:21N 29°13' W 094°41'0 0.0
2019-Nov-18 09:21N 29°13' W 094°41'0 0.0
2019-Nov-18 02:54N 29°13' W 094°41'0 0.0
2019-Nov-18 01:51N 29°13' W 094°41'0 0.0
2019-Nov-18 00:48N 29°13' W 094°41'0 0.1
2019-Nov-17 23:30N 29°13' W 094°41'3 6.8
2019-Nov-17 23:00N 29°15' W 094°38'8 8.2
2019-Nov-17 21:59N 29°21' W 094°45'0 0.0
2019-Nov-17 19:50N 29°21' W 094°45'0 0.0
2019-Nov-17 17:29N 29°21' W 094°45'0 0.0
2019-Nov-17 16:59N 29°21' W 094°45'49 5.1
2019-Nov-17 07:18N 28°35' W 094°25'  

Dump ship's entire track history